Time;durP1;ratioP1;P1;durP2;ratioP2;P2;SDS_P1;SDS_P2;PMS_P1;PMS_P2;Temp;Humidity;BMP_temperature;BMP_pressure;BME280_temperature;BME280_humidity;BME280_pressure;Samples;Min_cycle;Max_cycle;Signal;HPM_P1;HPM_P2
2021/09/10 00:00:06;;;;;;;10.57;3.90;;;;;;;15.89;87.08;97240.91;5083359;28;20052;-70
2021/09/10 00:02:33;;;;;;;7.65;3.78;;;;;;;15.86;87.04;97236.91;5082108;28;20150;-69
2021/09/10 00:05:00;;;;;;;9.27;3.90;;;;;;;15.76;87.80;97242.53;5083419;28;20051;-69
2021/09/10 00:07:26;;;;;;;5.97;3.45;;;;;;;15.67;88.14;97226.16;5081937;28;20060;-69
2021/09/10 00:09:53;;;;;;;7.63;4.00;;;;;;;15.55;89.22;97237.72;5082121;28;20047;-69
2021/09/10 00:12:20;;;;;;;7.97;3.65;;;;;;;15.54;89.26;97236.13;5083782;28;20065;-68
2021/09/10 00:14:46;;;;;;;9.63;4.93;;;;;;;15.22;88.94;97185.03;5082051;28;20052;-68
2021/09/10 00:17:13;;;;;;;5.78;3.83;;;;;;;14.73;89.31;97106.84;5082794;28;20059;-69
2021/09/10 00:19:40;;;;;;;10.25;4.00;;;;;;;15.30;89.68;97208.94;5083378;28;20047;-69
2021/09/10 00:22:07;;;;;;;6.47;4.30;;;;;;;15.38;90.19;97232.91;5082900;28;20048;-68
2021/09/10 00:24:34;;;;;;;8.20;4.40;;;;;;;15.41;90.02;97245.28;5083294;28;20050;-69
2021/09/10 00:27:00;;;;;;;9.00;4.00;;;;;;;15.37;90.22;97250.81;5081831;28;20077;-69
2021/09/10 00:29:27;;;;;;;6.88;4.15;;;;;;;15.29;91.13;97243.63;5081421;28;20048;-68
2021/09/10 00:31:54;;;;;;;6.32;4.00;;;;;;;15.24;91.26;97238.44;5081888;28;20064;-69
2021/09/10 00:34:21;;;;;;;7.95;3.88;;;;;;;15.13;91.41;97212.50;5083266;28;20052;-69
2021/09/10 00:36:47;;;;;;;7.45;4.20;;;;;;;15.25;91.75;97240.06;5083361;28;20060;-68
2021/09/10 00:39:17;;;;;;;6.03;3.60;;;;;;;15.24;91.68;97254.41;5081715;28;20048;-69
2021/09/10 00:41:44;;;;;;;7.72;3.72;;;;;;;15.24;91.11;97224.47;5081507;28;20169;-69
2021/09/10 00:44:10;;;;;;;5.68;3.15;;;;;;;13.67;91.32;96978.34;5084823;28;20088;-68
2021/09/10 00:46:37;;;;;;;6.93;3.95;;;;;;;14.98;91.42;97203.28;5085538;28;20060;-69
2021/09/10 00:49:04;;;;;;;7.40;3.63;;;;;;;14.75;92.04;97171.34;5086741;28;20052;-69
2021/09/10 00:51:31;;;;;;;6.25;4.15;;;;;;;15.20;92.54;97243.22;5085276;28;20143;-68
2021/09/10 00:53:58;;;;;;;8.57;4.15;;;;;;;14.65;93.03;97195.22;5087039;28;20066;-69
2021/09/10 00:56:26;;;;;;;7.18;4.22;;;;;;;14.72;92.66;97170.16;5086263;28;20056;-69
2021/09/10 00:58:56;;;;;;;9.68;3.78;;;;;;;15.20;92.79;97246.00;5086698;28;20052;-69
2021/09/10 01:01:23;;;;;;;7.68;3.83;;;;;;;14.89;94.01;97205.66;5087023;28;20048;-69
2021/09/10 01:03:51;;;;;;;7.47;3.90;;;;;;;15.11;93.94;97242.81;5085285;28;20048;-69
2021/09/10 01:06:18;;;;;;;7.22;3.63;;;;;;;15.12;93.85;97242.41;5086019;28;20082;-68
2021/09/10 01:08:46;;;;;;;10.25;3.63;;;;;;;14.34;92.64;97108.72;5085582;28;20048;-69
2021/09/10 01:11:14;;;;;;;10.13;4.15;;;;;;;14.83;92.90;97195.28;5086062;28;20048;-68
2021/09/10 01:13:42;;;;;;;7.78;3.90;;;;;;;15.10;92.93;97244.78;5084687;28;20139;-69
2021/09/10 01:16:09;;;;;;;10.85;3.85;;;;;;;14.81;92.77;97206.84;5085693;28;20052;-68
2021/09/10 01:18:36;;;;;;;4.90;3.70;;;;;;;14.91;93.99;97219.22;5085907;28;20056;-70
2021/09/10 01:21:03;;;;;;;8.00;3.55;;;;;;;15.05;94.05;97241.56;5084431;28;20483;-70
2021/09/10 01:23:29;;;;;;;6.72;4.20;;;;;;;15.00;94.50;97244.78;5084498;28;20044;-69
2021/09/10 01:25:57;;;;;;;5.65;3.40;;;;;;;14.88;94.50;97231.16;5086858;28;20048;-70
2021/09/10 01:28:24;;;;;;;5.65;3.88;;;;;;;12.82;94.31;96898.41;5086367;28;20055;-70
2021/09/10 01:30:50;;;;;;;6.25;4.10;;;;;;;14.90;95.47;97246.34;5086019;28;20135;-70
2021/09/10 01:33:18;;;;;;;8.70;4.18;;;;;;;14.93;95.67;97239.16;5084146;28;20503;-70
2021/09/10 01:35:44;;;;;;;10.75;3.97;;;;;;;14.99;94.76;97240.38;5086025;28;20052;-70
2021/09/10 01:38:11;;;;;;;5.25;3.50;;;;;;;15.07;94.23;97250.34;5084254;28;20054;-70
2021/09/10 01:40:39;;;;;;;8.02;3.45;;;;;;;14.96;95.02;97243.94;5085598;28;20051;-70
2021/09/10 01:43:06;;;;;;;5.72;4.30;;;;;;;15.02;94.68;97237.59;5084481;28;20088;-70
2021/09/10 01:45:33;;;;;;;6.38;4.30;;;;;;;14.96;94.88;97232.78;5084506;28;20059;-69
2021/09/10 01:48:00;;;;;;;6.53;4.10;;;;;;;14.94;95.40;97254.69;5084144;28;20060;-69
2021/09/10 01:50:27;;;;;;;7.80;3.95;;;;;;;14.71;94.65;97215.19;5086258;28;20112;-68
2021/09/10 01:52:54;;;;;;;9.50;3.78;;;;;;;14.03;94.04;97084.28;5083712;28;20048;-68
2021/09/10 01:55:22;;;;;;;7.50;4.00;;;;;;;14.69;95.06;97198.03;5074576;28;20166;-68
2021/09/10 01:57:49;;;;;;;4.85;3.65;;;;;;;14.94;94.59;97243.53;5085539;28;20054;-68
2021/09/10 02:00:19;;;;;;;6.50;3.28;;;;;;;14.87;95.36;97237.94;5085373;28;20048;-68
2021/09/10 02:02:47;;;;;;;8.60;3.80;;;;;;;14.77;95.16;97224.75;5083826;28;20144;-69
2021/09/10 02:05:14;;;;;;;8.63;3.90;;;;;;;13.87;95.46;97092.16;5085075;28;20503;-69
2021/09/10 02:07:41;;;;;;;8.98;3.90;;;;;;;14.75;96.36;97243.88;5085065;28;20052;-69
2021/09/10 02:10:11;;;;;;;11.30;3.97;;;;;;;14.78;96.19;97248.66;5084126;28;20476;-69
2021/09/10 02:12:39;;;;;;;9.32;3.53;;;;;;;14.87;95.72;97240.75;5084669;28;20135;-69
2021/09/10 02:15:09;;;;;;;8.95;4.25;;;;;;;14.32;95.17;97144.56;5085377;28;20701;-68
2021/09/10 02:17:36;;;;;;;7.53;4.15;;;;;;;13.20;95.08;96992.41;5083641;28;20062;-68
2021/09/10 02:20:04;;;;;;;5.40;3.63;;;;;;;14.84;95.90;97247.88;5084416;28;20067;-69
2021/09/10 02:22:31;;;;;;;5.03;3.47;;;;;;;14.53;95.75;97203.16;5084748;28;20063;-69
2021/09/10 02:24:58;;;;;;;5.88;4.03;;;;;;;14.84;96.47;97258.25;5084895;28;20048;-68
2021/09/10 02:27:25;;;;;;;10.45;3.95;;;;;;;14.80;96.16;97218.41;5082564;28;20048;-69
2021/09/10 02:29:51;;;;;;;6.60;3.55;;;;;;;14.69;95.72;97198.03;5084927;28;20078;-69
2021/09/10 02:32:18;;;;;;;7.80;3.38;;;;;;;14.95;95.81;97245.16;5084416;28;20048;-70
2021/09/10 02:34:45;;;;;;;4.97;3.33;;;;;;;14.91;96.18;97235.97;5084500;28;20049;-70
2021/09/10 02:37:12;;;;;;;9.10;3.50;;;;;;;14.88;97.24;97239.53;5084546;28;20074;-70
2021/09/10 02:39:39;;;;;;;12.98;4.05;;;;;;;14.93;96.54;97244.75;5083507;28;20482;-70
2021/09/10 02:42:06;;;;;;;8.50;3.30;;;;;;;14.65;95.69;97184.06;5083313;28;20140;-70
2021/09/10 02:44:33;;;;;;;7.05;3.30;;;;;;;14.59;94.78;97179.31;5083176;28;20055;-70
2021/09/10 02:46:59;;;;;;;10.35;3.60;;;;;;;14.96;95.78;97232.78;5084257;28;20263;-70
2021/09/10 02:49:26;;;;;;;5.78;3.70;;;;;;;14.99;95.04;97235.59;5083237;28;20062;-69
2021/09/10 02:51:53;;;;;;;5.30;3.72;;;;;;;14.31;95.25;97140.16;5082727;28;20055;-69
2021/09/10 02:54:20;;;;;;;6.55;3.60;;;;;;;14.84;95.98;97235.94;5084547;28;20055;-70
2021/09/10 02:56:46;;;;;;;7.55;3.85;;;;;;;14.83;96.72;97232.34;5082945;28;20064;-69
2021/09/10 02:59:13;;;;;;;5.90;3.47;;;;;;;14.90;95.26;97240.75;5084728;28;20522;-70
2021/09/10 03:01:47;;;;;;;6.15;3.40;;;;;;;14.75;96.19;97218.78;5084393;28;20058;-69
2021/09/10 03:04:15;;;;;;;5.40;3.42;;;;;;;14.64;96.68;97209.56;5082485;28;20063;-69
2021/09/10 03:06:42;;;;;;;6.53;3.70;;;;;;;14.77;96.85;97233.13;5083456;28;20044;-69
2021/09/10 03:09:09;;;;;;;5.85;4.28;;;;;;;14.79;97.26;97239.13;5083859;28;20097;-70
2021/09/10 03:11:35;;;;;;;7.85;4.30;;;;;;;14.78;97.68;97240.28;5083714;28;20130;-70
2021/09/10 03:14:02;;;;;;;7.72;4.22;;;;;;;14.88;96.75;97237.56;5083782;28;20401;-69
2021/09/10 03:16:31;;;;;;;8.93;4.78;;;;;;;14.92;95.88;97238.34;5083346;28;20454;-70
2021/09/10 03:18:59;;;;;;;7.07;4.47;;;;;;;14.89;95.36;97250.31;5082294;28;20062;-69
2021/09/10 03:21:26;;;;;;;6.88;4.53;;;;;;;14.70;95.79;97217.16;5082853;28;20063;-68
2021/09/10 03:23:52;;;;;;;10.88;5.35;;;;;;;14.25;95.87;97172.38;5083468;28;20445;-68
2021/09/10 03:26:19;;;;;;;10.27;5.47;;;;;;;14.03;95.80;97128.84;5083901;28;20047;-69
2021/09/10 03:28:46;;;;;;;7.53;4.57;;;;;;;13.51;96.15;97049.44;5083482;28;20527;-70
2021/09/10 03:31:13;;;;;;;11.57;4.50;;;;;;;14.37;96.70;97189.56;5082527;28;20060;-69
2021/09/10 03:33:40;;;;;;;9.05;4.35;;;;;;;14.83;96.14;97245.50;5083552;28;20436;-68
2021/09/10 03:36:08;;;;;;;5.25;4.63;;;;;;;14.74;96.69;97239.50;5082161;28;20556;-69
2021/09/10 03:38:35;;;;;;;7.95;4.22;;;;;;;14.50;96.24;97190.00;5084501;28;20079;-69
2021/09/10 03:41:03;;;;;;;7.00;3.88;;;;;;;14.86;96.05;97239.13;5082122;28;20052;-69
2021/09/10 03:43:29;;;;;;;10.80;4.30;;;;;;;14.90;95.75;97239.94;5083199;28;20052;-70
2021/09/10 03:45:57;;;;;;;6.60;3.85;;;;;;;14.82;96.14;97241.94;5084023;28;20157;-69
2021/09/10 03:48:23;;;;;;;8.63;4.53;;;;;;;14.81;96.76;97247.91;5082036;28;20059;-68
2021/09/10 03:50:50;;;;;;;6.38;4.50;;;;;;;14.24;96.23;97173.53;5082323;28;20062;-69
2021/09/10 03:53:17;;;;;;;7.10;5.05;;;;;;;14.78;96.49;97248.66;5083298;28;20075;-68
2021/09/10 03:55:43;;;;;;;9.65;5.43;;;;;;;14.80;96.50;97257.44;5083558;28;20060;-69
2021/09/10 03:58:10;;;;;;;8.30;5.20;;;;;;;14.82;96.84;97243.91;5083479;28;20055;-68
2021/09/10 04:00:37;;;;;;;9.80;5.47;;;;;;;14.83;96.48;97223.19;5083121;28;20056;-68
2021/09/10 04:03:04;;;;;;;9.52;5.28;;;;;;;14.10;95.76;97118.53;5083098;28;20063;-68
2021/09/10 04:05:31;;;;;;;11.98;4.72;;;;;;;14.43;95.14;97153.75;5081786;28;20060;-68
2021/09/10 04:07:58;;;;;;;12.18;4.50;;;;;;;15.11;94.95;97242.81;5082777;28;20383;-68
2021/09/10 04:10:25;;;;;;;8.05;4.53;;;;;;;15.05;95.08;97247.97;5082142;28;20574;-68
2021/09/10 04:12:55;;;;;;;7.57;5.25;;;;;;;15.08;94.82;97246.38;5083716;28;20522;-67
2021/09/10 04:15:22;;;;;;;9.18;5.20;;;;;;;14.74;95.37;97200.44;5081488;28;20102;-68
2021/09/10 04:17:49;;;;;;;59.50;18.67;;;;;;;15.17;94.78;97267.13;5081449;28;20052;-70
2021/09/10 04:20:16;;;;;;;39.03;12.93;;;;;;;14.84;94.88;97228.38;5085124;28;20048;-68
2021/09/10 04:22:43;;;;;;;14.30;6.97;;;;;;;15.33;93.78;97250.03;5085787;28;20074;-69
2021/09/10 04:25:10;;;;;;;11.55;6.25;;;;;;;15.37;93.13;97253.63;5087457;28;20098;-69
2021/09/10 04:27:38;;;;;;;11.00;5.80;;;;;;;15.32;93.44;97254.00;5085313;28;20064;-70
2021/09/10 04:30:05;;;;;;;13.63;5.75;;;;;;;14.87;94.12;97182.16;5086454;28;20060;-68
2021/09/10 04:32:33;;;;;;;7.95;4.30;;;;;;;15.38;93.82;97255.22;5086663;28;20055;-69
2021/09/10 04:35:00;;;;;;;8.27;4.35;;;;;;;15.35;93.66;97261.56;5086692;28;20526;-69
2021/09/10 04:37:27;;;;;;;11.80;4.93;;;;;;;14.97;93.00;97184.97;5087266;28;20585;-69
2021/09/10 04:39:54;;;;;;;12.73;4.07;;;;;;;15.47;92.84;97247.28;5087389;28;20058;-69
2021/09/10 04:42:21;;;;;;;10.23;3.85;;;;;;;15.63;92.03;97250.50;5086886;28;20060;-70
2021/09/10 04:44:48;;;;;;;5.72;3.83;;;;;;;15.14;92.27;97172.25;5085297;28;20055;-69
2021/09/10 04:47:15;;;;;;;9.52;4.22;;;;;;;15.67;92.71;97248.50;5084440;28;20063;-69
2021/09/10 04:49:42;;;;;;;11.90;5.00;;;;;;;15.35;92.06;97194.59;5085248;28;20059;-69
2021/09/10 04:52:09;;;;;;;11.00;4.22;;;;;;;15.80;90.80;97255.28;5086478;28;20052;-69
2021/09/10 04:54:36;;;;;;;8.95;4.50;;;;;;;14.82;91.68;97099.69;5086171;28;20055;-69
2021/09/10 04:57:03;;;;;;;10.52;4.65;;;;;;;15.80;90.85;97243.31;5086091;28;20052;-69
2021/09/10 04:59:30;;;;;;;8.73;4.70;;;;;;;15.73;89.96;97204.22;5086574;28;20048;-68
2021/09/10 05:01:56;;;;;;;9.75;4.53;;;;;;;15.98;90.07;97244.88;5085883;28;20502;-68
2021/09/10 05:04:28;;;;;;;12.82;5.18;;;;;;;16.00;89.89;97248.09;5085018;28;20048;-68
2021/09/10 05:06:55;;;;;;;14.70;6.13;;;;;;;15.69;89.50;97193.03;5084932;28;20623;-68
2021/09/10 05:09:22;;;;;;;10.82;5.50;;;;;;;15.95;89.06;97198.19;5085949;28;20434;-69
2021/09/10 05:11:48;;;;;;;7.53;4.30;;;;;;;16.06;88.78;97218.53;5086231;28;20052;-69
2021/09/10 05:14:15;;;;;;;14.25;4.97;;;;;;;15.89;88.91;97197.00;5086115;28;20051;-69
2021/09/10 05:16:42;;;;;;;7.43;4.88;;;;;;;16.34;88.76;97235.25;5085408;28;20064;-69
2021/09/10 05:19:09;;;;;;;9.20;4.38;;;;;;;16.31;87.79;97207.31;5085950;28;20051;-69
2021/09/10 05:21:37;;;;;;;18.05;5.70;;;;;;;16.63;86.59;97240.81;5085786;28;20438;-68
2021/09/10 05:24:04;;;;;;;11.23;5.20;;;;;;;16.67;85.79;97222.00;5086116;28;20051;-69
2021/09/10 05:26:32;;;;;;;16.00;5.68;;;;;;;16.85;85.51;97242.31;5086684;28;20070;-69
2021/09/10 05:28:59;;;;;;;15.35;4.97;;;;;;;17.00;84.92;97243.81;5086101;28;20052;-69
2021/09/10 05:31:26;;;;;;;14.60;5.45;;;;;;;16.80;84.48;97190.38;5084204;28;20052;-68
2021/09/10 05:33:53;;;;;;;12.57;5.00;;;;;;;16.93;83.83;97176.72;5085887;28;20491;-69
2021/09/10 05:36:20;;;;;;;7.65;4.78;;;;;;;17.42;81.97;97238.78;5085398;28;20051;-70
2021/09/10 05:38:47;;;;;;;9.75;5.82;;;;;;;17.17;81.86;97192.53;5084096;28;20044;-69
2021/09/10 05:41:14;;;;;;;12.32;6.70;;;;;;;17.43;81.39;97228.38;5085502;28;20079;-69
2021/09/10 05:43:41;;;;;;;15.55;6.05;;;;;;;16.97;80.02;97138.28;5085488;28;20075;-68
2021/09/10 05:46:08;;;;;;;12.38;7.65;;;;;;;17.17;79.91;97186.94;5085473;28;20605;-71
2021/09/10 05:48:35;;;;;;;11.57;7.10;;;;;;;17.28;80.11;97170.84;5084215;28;20086;-69
2021/09/10 05:51:02;;;;;;;15.88;7.38;;;;;;;17.21;78.52;97131.72;5085708;28;20064;-68
2021/09/10 05:53:30;;;;;;;10.27;6.38;;;;;;;17.68;78.18;97196.22;5085027;28;20517;-70
2021/09/10 05:55:57;;;;;;;10.48;6.78;;;;;;;16.43;78.09;96997.97;5077708;28;20533;-66
2021/09/10 05:58:24;;;;;;;15.13;6.38;;;;;;;17.89;77.84;97200.84;5078481;28;20054;-65
2021/09/10 06:00:51;;;;;;;14.57;8.10;;;;;;;17.55;77.30;97133.47;5073746;28;20458;-64
2021/09/10 06:03:18;;;;;;;15.82;9.93;;;;;;;18.28;78.07;97251.72;5081632;28;20101;-60
2021/09/10 06:05:45;;;;;;;17.73;10.35;;;;;;;18.37;77.55;97243.59;5083638;28;20090;-64
2021/09/10 06:08:12;;;;;;;22.75;12.02;;;;;;;18.52;77.06;97233.06;5083495;28;20087;-60
2021/09/10 06:10:38;;;;;;;10.75;7.50;;;;;;;18.34;75.40;97230.41;5083827;28;20060;-61
2021/09/10 06:13:05;;;;;;;20.15;11.95;;;;;;;18.20;76.20;97177.28;5084079;28;20058;-64
2021/09/10 06:15:32;;;;;;;17.88;11.38;;;;;;;18.06;75.76;97138.19;5089257;28;20636;-69
2021/09/10 06:17:58;;;;;;;9.60;5.10;;;;;;;18.48;75.51;97204.25;5081793;28;20454;-62
2021/09/10 06:20:25;;;;;;;8.82;4.95;;;;;;;18.71;75.47;97213.59;5083134;28;20044;-64
2021/09/10 06:22:52;;;;;;;13.00;5.80;;;;;;;18.88;75.70;97240.66;5083517;28;20055;-65
2021/09/10 06:25:19;;;;;;;8.85;5.60;;;;;;;18.71;74.99;97191.16;5083944;28;20514;-64
2021/09/10 06:27:46;;;;;;;11.18;6.05;;;;;;;18.57;76.13;97208.16;5084575;28;20048;-63
2021/09/10 06:30:12;;;;;;;20.73;10.07;;;;;;;18.96;75.93;97247.78;5083355;28;20063;-65
2021/09/10 06:32:39;;;;;;;13.93;7.57;;;;;;;18.92;75.04;97210.50;5080892;28;20051;-63
2021/09/10 06:35:06;;;;;;;13.88;8.02;;;;;;;19.41;73.03;97257.63;5078915;28;20502;-65
2021/09/10 06:37:33;;;;;;;15.05;8.15;;;;;;;19.57;72.98;97244.97;5083052;28;20048;-62
2021/09/10 06:40:00;;;;;;;19.52;9.38;;;;;;;19.48;72.74;97240.66;5078332;28;20080;-61
2021/09/10 06:42:27;;;;;;;18.95;8.82;;;;;;;19.53;72.74;97251.44;5079815;28;20521;-68
2021/09/10 06:44:54;;;;;;;17.23;8.90;;;;;;;19.39;72.41;97209.47;5082230;28;20067;-63
2021/09/10 06:47:21;;;;;;;14.43;6.60;;;;;;;19.62;72.16;97233.25;5082951;28;20048;-64
2021/09/10 06:49:48;;;;;;;14.85;7.40;;;;;;;20.03;71.50;97237.38;5069420;28;20053;-65
2021/09/10 06:52:15;;;;;;;17.35;7.70;;;;;;;20.27;69.79;97241.00;5076837;28;20052;-68
2021/09/10 06:54:42;;;;;;;15.88;6.55;;;;;;;19.65;69.34;97165.72;5067245;28;20050;-69
2021/09/10 06:57:09;;;;;;;18.90;7.13;;;;;;;19.95;69.31;97184.50;5082764;28;20052;-65
2021/09/10 06:59:36;;;;;;;16.33;6.85;;;;;;;20.67;68.57;97242.69;5081171;28;20126;-62
2021/09/10 07:02:02;;;;;;;12.07;6.00;;;;;;;20.86;67.03;97236.25;5077448;28;20078;-66
2021/09/10 07:04:30;;;;;;;9.98;5.50;;;;;;;21.04;66.51;97239.53;5082774;28;20109;-65
2021/09/10 07:06:57;;;;;;;11.93;6.72;;;;;;;21.13;66.12;97253.84;5083253;28;20082;-67
2021/09/10 07:09:24;;;;;;;12.85;5.93;;;;;;;21.09;66.13;97213.66;5083130;28;20054;-65
2021/09/10 07:11:51;;;;;;;15.07;5.80;;;;;;;21.52;64.28;97250.97;5067698;28;20091;-66
2021/09/10 07:14:18;;;;;;;9.93;5.85;;;;;;;21.78;63.29;97247.13;5064084;28;20240;-62
2021/09/10 07:16:44;;;;;;;10.57;5.40;;;;;;;21.54;62.63;97206.22;5073900;28;20537;-66
2021/09/10 07:19:11;;;;;;;9.95;5.05;;;;;;;21.92;62.15;97246.81;5083968;28;20055;-66
2021/09/10 07:21:38;;;;;;;6.50;4.32;;;;;;;22.20;61.61;97254.59;5075671;28;20065;-67
2021/09/10 07:24:05;;;;;;;12.43;4.55;;;;;;;22.51;59.86;97252.16;5062187;28;20054;-67
2021/09/10 07:26:32;;;;;;;9.00;4.00;;;;;;;22.31;60.09;97215.59;5074923;28;20064;-65
2021/09/10 07:28:58;;;;;;;10.43;4.15;;;;;;;23.03;58.79;97268.94;5081228;28;20062;-63
2021/09/10 07:31:25;;;;;;;8.98;4.03;;;;;;;23.11;58.37;97267.47;5070898;28;20053;-66
2021/09/10 07:33:52;;;;;;;12.05;4.25;;;;;;;22.77;57.23;97227.66;5075431;28;20048;-68
2021/09/10 07:36:20;;;;;;;11.50;3.90;;;;;;;23.23;57.09;97269.53;5070958;28;20175;-67
2021/09/10 07:38:47;;;;;;;11.82;4.20;;;;;;;23.17;57.08;97274.97;5073149;28;20570;-70
2021/09/10 07:41:14;;;;;;;10.68;4.07;;;;;;;23.20;56.18;97267.63;5072363;28;20102;-69
2021/09/10 07:43:41;;;;;;;9.10;3.75;;;;;;;23.33;55.63;97263.59;5083357;28;20051;-66
2021/09/10 07:46:08;;;;;;;7.82;3.72;;;;;;;23.29;55.17;97262.13;5080508;28;20474;-68
2021/09/10 07:48:35;;;;;;;11.15;3.95;;;;;;;22.79;54.63;97160.22;5069746;28;20464;-65
2021/09/10 07:51:02;;;;;;;5.63;3.60;;;;;;;22.33;55.01;97111.50;5066497;28;20360;-68
2021/09/10 07:53:29;;;;;;;6.30;3.30;;;;;;;23.33;53.23;97248.69;5083813;28;20056;-65
2021/09/10 07:55:56;;;;;;;6.68;3.65;;;;;;;22.86;54.47;97216.53;5085094;28;20052;-67
2021/09/10 07:58:23;;;;;;;8.40;3.50;;;;;;;23.24;54.39;97228.72;5066954;28;20541;-71
2021/09/10 08:00:49;;;;;;;10.43;5.57;;;;;;;23.12;52.91;97243.63;5066859;28;20055;-73
2021/09/10 08:03:16;;;;;;;11.05;4.78;;;;;;;23.01;51.35;97217.69;5066968;28;20519;-73
2021/09/10 08:05:44;;;;;;;8.88;4.20;;;;;;;22.54;48.76;97120.63;5086199;28;20044;-76
2021/09/10 08:08:10;;;;;;;9.38;3.83;;;;;;;23.03;48.77;97165.13;5046355;28;20055;-70
2021/09/10 08:10:37;;;;;;;9.23;3.30;;;;;;;23.87;48.60;97266.38;4964484;28;20563;-68
2021/09/10 08:13:04;;;;;;;10.30;4.15;;;;;;;23.65;49.31;97262.63;4965166;28;20054;-70
2021/09/10 08:15:31;;;;;;;8.32;4.05;;;;;;;22.98;49.75;97235.56;4962434;28;20061;-67
2021/09/10 08:17:57;;;;;;;19.13;7.22;;;;;;;22.43;52.76;97265.66;4963661;28;20086;-69
2021/09/10 08:20:25;;;;;;;22.42;14.13;;;;;;;22.91;51.80;97266.81;4964347;28;20054;-66
2021/09/10 08:22:52;;;;;;;13.82;6.30;;;;;;;22.91;50.03;97303.56;4964588;28;20173;-69
2021/09/10 08:25:20;;;;;;;4.90;3.10;;;;;;;22.93;48.77;97224.78;4964752;28;20316;-67
2021/09/10 08:27:46;;;;;;;8.55;4.25;;;;;;;23.29;47.74;97262.13;4963066;28;20078;-67
2021/09/10 08:30:15;;;;;;;14.07;5.47;;;;;;;23.33;47.72;97257.16;4994275;28;20064;-72
2021/09/10 08:32:42;;;;;;;9.02;4.05;;;;;;;22.66;46.66;97146.06;4964709;28;20116;-67
2021/09/10 08:35:09;;;;;;;10.68;3.90;;;;;;;22.48;46.90;97207.09;4992902;28;20055;-67
2021/09/10 08:37:37;;;;;;;9.60;3.53;;;;;;;22.08;45.09;97179.09;4995010;28;20464;-64
2021/09/10 08:40:05;;;;;;;5.70;3.00;;;;;;;22.37;44.16;97151.69;4963348;28;20561;-63
2021/09/10 08:42:32;;;;;;;9.77;3.25;;;;;;;23.05;44.00;97238.16;4964057;28;20054;-65
2021/09/10 08:44:59;;;;;;;7.18;3.28;;;;;;;23.05;42.78;97218.38;4964071;28;20520;-70
2021/09/10 08:47:26;;;;;;;7.18;3.55;;;;;;;22.96;43.33;97175.88;4963354;28;20051;-64
2021/09/10 08:49:53;;;;;;;4.03;3.20;;;;;;;22.83;42.46;97218.22;4994859;28;20055;-63
2021/09/10 08:52:21;;;;;;;12.70;5.45;;;;;;;21.56;41.23;96966.91;4963640;28;20509;-70
2021/09/10 08:54:48;;;;;;;22.17;14.00;;;;;;;23.22;41.01;97180.34;4964014;28;20074;-69
2021/09/10 08:57:14;;;;;;;9.55;6.38;;;;;;;22.93;40.64;97148.50;4963203;28;20146;-69
2021/09/10 08:59:41;;;;;;;10.85;6.63;;;;;;;22.79;40.62;97200.59;4964596;28;20050;-71
2021/09/10 09:02:08;;;;;;;4.25;3.40;;;;;;;23.31;40.18;97220.06;4962448;28;20053;-68
2021/09/10 09:04:37;;;;;;;4.65;3.58;;;;;;;22.68;40.17;97148.44;4963283;28;20493;-70
2021/09/10 09:07:09;;;;;;;6.93;4.07;;;;;;;23.23;40.99;97224.31;4963230;28;20039;-70
2021/09/10 09:09:37;;;;;;;6.03;3.00;;;;;;;23.64;38.43;97215.78;4952402;28;20051;-70
2021/09/10 09:12:22;;;;;;;6.55;3.38;;;;;;;23.83;36.97;97206.28;4961630;28;20067;-67
2021/09/10 09:14:53;;;;;;;4.90;3.03;;;;;;;23.99;35.30;97209.03;4963919;28;20095;-68
2021/09/10 09:17:23;;;;;;;4.55;3.05;;;;;;;23.77;33.13;97157.19;4993155;28;20151;-66
2021/09/10 09:20:24;;;;;;;8.35;2.95;;;;;;;23.95;31.42;97157.34;4970993;28;20161;-65
2021/09/10 09:22:52;;;;;;;8.40;3.13;;;;;;;24.28;32.35;97198.31;4956601;28;20146;-65
2021/09/10 09:25:22;;;;;;;4.07;2.25;;;;;;;22.84;31.14;97049.50;4963106;28;20150;-69
2021/09/10 09:27:49;;;;;;;4.18;2.30;;;;;;;22.73;30.46;97108.34;4961689;28;20057;-69
2021/09/10 09:30:34;;;;;;;2.85;2.38;;;;;;;23.57;31.49;97199.84;4962552;28;20054;-69
2021/09/10 09:33:01;;;;;;;8.35;4.10;;;;;;;23.94;30.32;97195.41;4962106;28;20050;-69
2021/09/10 09:35:32;;;;;;;4.00;2.42;;;;;;;23.53;29.71;97193.50;4963393;28;20199;-68
2021/09/10 09:38:10;;;;;;;3.58;2.28;;;;;;;23.72;29.64;97188.88;4963366;28;20055;-67
2021/09/10 09:40:37;;;;;;;3.10;2.58;;;;;;;23.82;30.51;97125.47;4961631;28;20532;-67
2021/09/10 09:43:19;;;;;;;4.70;2.60;;;;;;;24.63;29.08;97185.72;4962443;28;20073;-66
2021/09/10 09:45:48;;;;;;;4.00;3.33;;;;;;;22.89;27.73;96860.44;4963160;28;20057;-67
2021/09/10 09:48:16;;;;;;;6.97;3.40;;;;;;;25.01;26.62;97143.84;4962303;28;20065;-66
2021/09/10 09:50:45;;;;;;;2.85;2.65;;;;;;;25.53;26.17;97179.13;4961779;28;20058;-68
2021/09/10 09:53:14;;;;;;;3.85;2.38;;;;;;;25.29;25.43;97086.00;4962841;28;20054;-65
2021/09/10 09:55:43;;;;;;;3.78;2.47;;;;;;;25.70;24.30;97106.69;4980971;28;20047;-64
2021/09/10 09:58:10;;;;;;;3.97;3.08;;;;;;;25.91;24.80;97143.47;4982701;28;20435;-69
2021/09/10 10:00:39;;;;;;;2.70;2.50;;;;;;;26.14;24.89;97147.81;4982386;28;20054;-71
2021/09/10 10:03:07;;;;;;;5.40;3.47;;;;;;;26.35;25.15;97163.97;4964758;28;20080;-66
2021/09/10 10:06:03;;;;;;;2.80;2.60;;;;;;;26.44;25.78;97169.63;4962385;28;20429;-70
2021/09/10 10:08:50;;;;;;;2.80;2.60;;;;;;;26.46;25.25;97167.13;4963111;28;20047;-72
2021/09/10 10:11:22;;;;;;;3.55;2.78;;;;;;;26.49;25.43;97158.41;4961989;28;20049;-69
2021/09/10 10:13:58;;;;;;;2.75;2.50;;;;;;;26.00;24.54;97100.16;4962993;28;20073;-65
2021/09/10 10:16:53;;;;;;;7.97;7.18;;;;;;;26.22;26.12;97089.44;4958941;28;20443;-68
2021/09/10 10:19:20;;;;;;;2.92;2.72;;;;;;;25.88;26.42;97163.50;4959693;28;20057;-67
2021/09/10 10:21:54;;;;;;;3.22;2.70;;;;;;;25.11;26.29;97165.34;4961615;28;20429;-65
2021/09/10 10:24:40;;;;;;;4.85;2.90;;;;;;;25.11;28.05;97165.34;4961978;28;20875;-67
2021/09/10 10:27:33;;;;;;;3.88;2.53;;;;;;;25.74;27.15;97155.56;4962994;28;20238;-71
2021/09/10 10:30:09;;;;;;;4.95;2.53;;;;;;;25.99;25.72;97161.00;4963503;28;20055;-63
2021/09/10 10:32:37;;;;;;;5.05;3.47;;;;;;;24.39;25.34;96870.22;4994036;28;20054;-69
2021/09/10 10:35:25;;;;;;;3.22;2.92;;;;;;;25.72;24.66;97152.44;4962230;28;20337;-66
2021/09/10 10:37:54;;;;;;;3.53;2.50;;;;;;;25.20;25.67;97165.38;4968228;28;20057;-68
2021/09/10 10:40:27;;;;;;;6.25;2.80;;;;;;;25.86;26.21;97163.19;4987588;28;20057;-67
2021/09/10 10:43:28;;;;;;;4.40;3.40;;;;;;;26.21;25.58;97167.38;4962095;28;20172;-69
2021/09/10 10:46:06;;;;;;;5.28;2.83;;;;;;;26.33;25.87;97129.53;4960671;28;20050;-64
2021/09/10 10:48:32;;;;;;;3.63;3.08;;;;;;;26.46;25.84;97156.53;4961332;28;20070;-68
2021/09/10 10:51:21;;;;;;;9.07;5.72;;;;;;;25.14;25.82;97153.06;4961584;28;20472;-68
2021/09/10 10:53:54;;;;;;;4.57;3.33;;;;;;;24.76;26.29;97161.00;4960540;28;20133;-69
2021/09/10 10:56:21;;;;;;;3.33;3.03;;;;;;;25.40;26.05;97153.72;4961188;28;20378;-71
2021/09/10 10:59:13;;;;;;;3.28;3.05;;;;;;;25.94;26.06;97153.13;4960075;28;20418;-67
2021/09/10 11:02:21;;;;;;;3.25;2.13;;;;;;;26.22;24.09;97157.63;4962269;28;20502;-68
2021/09/10 11:04:58;;;;;;;3.60;2.53;;;;;;;25.83;24.35;97053.44;4996056;28;20593;-73
2021/09/10 11:07:27;;;;;;;4.93;2.60;;;;;;;26.31;24.01;97154.78;4961912;28;20073;-66
2021/09/10 11:10:11;;;;;;;3.35;2.95;;;;;;;25.57;23.50;97043.59;4959404;28;20085;-71
2021/09/10 11:12:39;;;;;;;3.05;2.53;;;;;;;25.72;24.23;97034.00;4950810;28;20051;-63
2021/09/10 11:15:24;;;;;;;4.57;2.40;;;;;;;26.63;24.44;97154.19;4961516;28;20054;-63
2021/09/10 11:17:58;;;;;;;2.72;2.53;;;;;;;26.76;24.66;97140.63;4957343;28;20441;-65
2021/09/10 11:20:37;;;;;;;2.53;2.30;;;;;;;24.97;23.70;96882.41;4961937;28;20054;-67
2021/09/10 11:23:12;;;;;;;3.53;2.97;;;;;;;26.27;24.32;97135.03;4989684;28;20089;-68
2021/09/10 11:25:47;;;;;;;3.70;3.40;;;;;;;26.59;24.59;97136.47;4961018;28;20057;-69
2021/09/10 11:28:15;;;;;;;2.55;2.35;;;;;;;26.64;24.63;97138.72;4961344;28;20053;-74
2021/09/10 11:30:43;;;;;;;2.20;2.00;;;;;;;23.97;25.26;96934.16;4959633;28;20057;-66
2021/09/10 11:33:14;;;;;;;8.25;7.40;;;;;;;25.79;25.91;97129.41;4961569;28;20097;-64
2021/09/10 11:35:42;;;;;;;4.80;3.10;;;;;;;26.30;26.96;97130.50;4960141;28;20464;-69
2021/09/10 11:38:20;;;;;;;5.15;3.17;;;;;;;26.77;25.29;97125.13;4961033;28;20055;-65